Time;durP1;ratioP1;P1;durP2;ratioP2;P2;SDS_P1;SDS_P2;PMS_P1;PMS_P2;Temp;Humidity;BMP_temperature;BMP_pressure;BME280_temperature;BME280_humidity;BME280_pressure;Samples;Min_cycle;Max_cycle;Signal;HPM_P1;HPM_P2
2022/04/02 00:02:04;;;;;;;111.32;37.53;;;;;;;1.56;75.94;93587.22;5030116;28;20030;-63
2022/04/02 00:04:30;;;;;;;106.15;36.83;;;;;;;2.98;75.83;93767.03;5030646;28;20351;-63
2022/04/02 00:06:55;;;;;;;109.72;36.90;;;;;;;2.20;75.92;93642.59;5030545;28;20022;-63
2022/04/02 00:09:21;;;;;;;104.22;33.88;;;;;;;1.58;76.09;93590.31;5030550;28;20040;-64
2022/04/02 00:11:47;;;;;;;100.47;35.08;;;;;;;0.73;76.73;93504.84;5030159;28;20028;-63
2022/04/02 00:14:13;;;;;;;101.95;36.28;;;;;;;2.52;76.61;93710.81;5030468;28;20382;-64
2022/04/02 00:16:38;;;;;;;101.35;35.63;;;;;;;2.98;76.55;93770.44;5030381;28;20028;-63
2022/04/02 00:19:04;;;;;;;105.30;35.60;;;;;;;1.66;76.25;93581.06;5034269;28;20064;-62
2022/04/02 00:21:29;;;;;;;125.18;38.05;;;;;;;2.09;76.43;93661.09;5033768;28;20492;-62
2022/04/02 00:23:54;;;;;;;113.70;37.33;;;;;;;2.40;75.37;93660.59;5032918;28;20028;-62
2022/04/02 00:26:20;;;;;;;148.70;42.75;;;;;;;3.37;75.64;93798.09;5034066;28;20033;-62
2022/04/02 00:28:48;;;;;;;110.85;35.17;;;;;;;2.11;75.10;93592.66;5034052;28;20018;-63
2022/04/02 00:31:14;;;;;;;105.60;32.88;;;;;;;1.65;75.89;93579.50;5033115;28;20076;-62
2022/04/02 00:33:42;;;;;;;90.78;29.13;;;;;;;1.68;76.06;93621.63;5033873;28;20386;-63
2022/04/02 00:36:08;;;;;;;93.30;28.85;;;;;;;2.92;76.48;93805.72;5016186;28;20025;-62
2022/04/02 00:38:34;;;;;;;111.47;35.45;;;;;;;2.53;75.01;93688.75;5033854;28;20074;-62
2022/04/02 00:41:00;;;;;;;114.20;36.08;;;;;;;2.31;74.81;93633.50;5033340;28;20474;-63
2022/04/02 00:43:28;;;;;;;122.38;38.22;;;;;;;3.65;74.51;93775.22;5033604;28;20037;-62
2022/04/02 00:45:55;;;;;;;147.43;42.33;;;;;;;2.53;73.92;93573.25;5033796;28;20061;-63
2022/04/02 00:48:21;;;;;;;124.07;38.63;;;;;;;3.59;74.18;93815.84;5033828;28;20052;-63
2022/04/02 00:50:55;;;;;;;131.02;41.15;;;;;;;3.53;72.92;93728.41;5033257;28;20029;-64
2022/04/02 00:53:22;;;;;;;142.93;40.15;;;;;;;2.89;73.19;93650.56;5034095;28;20458;-64
2022/04/02 00:55:51;;;;;;;127.35;38.47;;;;;;;2.54;74.55;93637.03;5033384;28;20029;-63
2022/04/02 00:58:17;;;;;;;124.82;38.42;;;;;;;3.02;74.14;93697.88;5033581;28;20155;-64
2022/04/02 01:00:43;;;;;;;123.78;39.03;;;;;;;2.46;74.17;93621.97;5033108;28;20437;-64
2022/04/02 01:03:11;;;;;;;148.00;42.45;;;;;;;3.04;72.50;93606.41;5033364;28;20037;-64
2022/04/02 01:05:38;;;;;;;164.80;42.28;;;;;;;3.29;71.64;93620.88;5033334;28;20033;-64
2022/04/02 01:08:07;;;;;;;152.35;42.90;;;;;;;3.50;71.69;93671.16;5033436;28;20021;-63
2022/04/02 01:10:35;;;;;;;150.77;42.47;;;;;;;3.34;71.54;93614.72;5032798;28;20045;-64
2022/04/02 01:13:01;;;;;;;135.00;41.15;;;;;;;3.58;71.13;93643.38;5033525;28;20021;-64
2022/04/02 01:15:27;;;;;;;134.63;39.40;;;;;;;3.19;71.24;93622.94;5015608;28;20029;-64
2022/04/02 01:17:52;;;;;;;125.63;38.78;;;;;;;4.38;71.29;93768.94;5033075;28;20049;-63
2022/04/02 01:20:18;;;;;;;147.50;41.78;;;;;;;3.69;70.80;93721.00;5032749;28;20493;-62
2022/04/02 01:22:45;;;;;;;151.40;42.72;;;;;;;3.59;70.99;93627.31;5033065;28;20113;-63
2022/04/02 01:25:10;;;;;;;119.40;38.30;;;;;;;3.51;70.15;93640.38;5033072;28;20032;-63
2022/04/02 01:27:37;;;;;;;109.75;36.38;;;;;;;3.61;71.04;93656.72;5033019;28;20030;-64
2022/04/02 01:30:03;;;;;;;139.73;40.80;;;;;;;4.65;69.75;93725.13;5031652;28;20100;-64
2022/04/02 01:32:36;;;;;;;143.50;39.88;;;;;;;3.81;69.72;93613.41;5032788;28;20112;-64
2022/04/02 01:35:02;;;;;;;116.72;35.55;;;;;;;4.18;69.54;93675.41;5015124;28;20029;-63
2022/04/02 01:37:27;;;;;;;138.20;38.88;;;;;;;4.59;70.47;93711.31;5032868;28;20029;-64
2022/04/02 01:39:53;;;;;;;109.20;32.88;;;;;;;4.97;69.03;93708.28;5032568;28;20589;-64
2022/04/02 01:42:24;;;;;;;100.47;30.27;;;;;;;4.41;69.26;93723.59;5032506;28;20037;-64
2022/04/02 01:44:51;;;;;;;76.68;25.63;;;;;;;3.10;69.80;93586.81;5032743;28;20036;-63
2022/04/02 01:47:18;;;;;;;82.88;26.92;;;;;;;3.51;70.27;93578.06;5032697;28;20544;-63
2022/04/02 01:49:44;;;;;;;67.50;23.25;;;;;;;4.60;69.92;93794.50;5032656;28;20079;-64
2022/04/02 01:52:09;;;;;;;61.83;23.00;;;;;;;3.53;70.53;93591.72;5032085;28;20033;-63
2022/04/02 01:54:35;;;;;;;58.17;24.48;;;;;;;3.60;70.02;93617.56;5014773;28;20088;-63
2022/04/02 01:57:01;;;;;;;76.20;29.00;;;;;;;4.74;70.67;93762.06;5032356;28;20443;-62
2022/04/02 01:59:26;;;;;;;75.93;29.60;;;;;;;4.57;70.24;93710.06;5014648;28;20025;-63
2022/04/02 02:01:52;;;;;;;89.57;30.20;;;;;;;4.69;69.77;93784.81;5031946;28;20029;-63
2022/04/02 02:04:17;;;;;;;92.70;32.13;;;;;;;5.23;68.81;93784.81;5032098;28;20402;-63
2022/04/02 02:06:45;;;;;;;104.82;34.88;;;;;;;4.46;69.71;93719.28;5032240;28;20063;-64
2022/04/02 02:09:10;;;;;;;91.25;31.27;;;;;;;3.51;69.94;93664.81;5032212;28;20075;-65
2022/04/02 02:11:36;;;;;;;118.28;40.38;;;;;;;3.68;69.71;93632.63;5031612;28;20705;-64
2022/04/02 02:14:01;;;;;;;114.53;42.10;;;;;;;3.98;69.12;93627.75;5014440;28;20425;-64
2022/04/02 02:16:27;;;;;;;120.82;43.17;;;;;;;3.37;69.88;93599.13;5032110;28;20025;-64
2022/04/02 02:18:53;;;;;;;112.32;42.85;;;;;;;3.93;68.64;93636.53;5032046;28;20033;-64
2022/04/02 02:21:18;;;;;;;112.57;43.65;;;;;;;4.26;69.42;93665.28;5031363;28;20029;-64
2022/04/02 02:23:43;;;;;;;94.53;39.00;;;;;;;4.90;68.76;93698.16;5031868;28;20117;-63
2022/04/02 02:26:09;;;;;;;121.40;44.63;;;;;;;5.27;68.53;93819.25;5014164;28;20379;-64
2022/04/02 02:28:34;;;;;;;111.97;40.92;;;;;;;3.41;69.72;93696.56;5031853;28;20029;-64
2022/04/02 02:30:59;;;;;;;106.50;41.80;;;;;;;4.86;69.14;93828.16;5031272;28;20045;-64
2022/04/02 02:36:09;;;;;;;116.13;42.45;;;;;;;4.29;68.47;93651.50;5031774;28;20087;-64
2022/04/02 02:38:34;;;;;;;117.93;42.33;;;;;;;5.14;67.98;93802.44;5031684;28;20033;-64
2022/04/02 02:40:59;;;;;;;110.78;42.33;;;;;;;3.69;68.77;93678.13;5013280;28;20658;-63
2022/04/02 02:43:25;;;;;;;129.13;45.92;;;;;;;4.86;68.47;93757.81;5031527;28;20025;-64
2022/04/02 02:45:50;;;;;;;124.75;44.42;;;;;;;4.24;68.06;93635.81;5031681;28;20029;-64
2022/04/02 02:48:16;;;;;;;103.47;40.47;;;;;;;3.71;68.94;93668.88;5031493;28;20136;-64
2022/04/02 02:50:44;;;;;;;124.63;43.95;;;;;;;4.84;68.95;93778.41;5030694;28;20036;-64
2022/04/02 02:53:11;;;;;;;112.00;42.85;;;;;;;3.92;68.89;93641.03;5030524;28;20108;-63
2022/04/02 02:55:37;;;;;;;115.13;42.20;;;;;;;4.40;69.66;93805.47;5031046;28;20064;-64
2022/04/02 02:58:02;;;;;;;103.38;42.20;;;;;;;3.79;69.09;93646.34;5031397;28;20068;-64
2022/04/02 03:00:28;;;;;;;106.47;41.80;;;;;;;4.14;69.57;93768.41;5030883;28;20470;-63
2022/04/02 03:02:53;;;;;;;126.97;45.33;;;;;;;3.75;69.16;93706.66;5013362;28;20025;-63
2022/04/02 03:05:19;;;;;;;127.20;43.53;;;;;;;3.75;68.75;93648.78;5031250;28;20025;-63
2022/04/02 03:07:49;;;;;;;105.70;42.20;;;;;;;3.84;68.68;93648.88;5031153;28;20036;-63
2022/04/02 03:10:19;;;;;;;107.45;41.53;;;;;;;4.56;69.16;93819.88;5030735;28;20026;-63
2022/04/02 03:12:46;;;;;;;101.20;41.08;;;;;;;3.54;70.68;93792.28;5030991;28;20025;-63
2022/04/02 03:15:13;;;;;;;99.53;41.15;;;;;;;3.13;70.54;93701.84;5031836;28;20022;-64
2022/04/02 03:17:38;;;;;;;90.50;40.25;;;;;;;3.49;69.98;93677.50;5031004;28;20574;-63
2022/04/02 03:20:05;;;;;;;108.50;43.83;;;;;;;2.62;71.64;93696.75;5030800;28;20117;-63
2022/04/02 03:22:35;;;;;;;93.88;41.58;;;;;;;3.25;71.27;93716.34;5030966;28;20061;-63
2022/04/02 03:25:01;;;;;;;115.00;45.88;;;;;;;4.30;70.19;93818.88;5030855;28;20116;-63
2022/04/02 03:27:27;;;;;;;125.03;44.85;;;;;;;4.11;70.18;93793.47;5030994;28;20482;-63
2022/04/02 03:29:52;;;;;;;127.40;46.47;;;;;;;3.62;69.47;93663.53;5030953;28;20021;-63
2022/04/02 03:32:18;;;;;;;114.05;45.72;;;;;;;3.72;68.28;93677.53;5030463;28;20033;-63
2022/04/02 03:34:43;;;;;;;128.65;48.65;;;;;;;4.66;68.94;93795.19;5030894;28;20060;-63
2022/04/02 03:37:09;;;;;;;124.75;48.10;;;;;;;4.51;68.81;93767.34;5030838;28;20548;-63
2022/04/02 03:39:34;;;;;;;90.97;39.17;;;;;;;3.69;68.77;93697.31;5030761;28;20100;-63
2022/04/02 03:42:00;;;;;;;116.13;44.95;;;;;;;3.59;68.89;93706.19;5030480;28;20032;-63
2022/04/02 03:44:26;;;;;;;109.72;44.75;;;;;;;4.08;68.25;93738.03;5031032;28;20489;-63
2022/04/02 03:47:09;;;;;;;98.88;42.17;;;;;;;3.89;67.99;93698.75;5030974;28;20029;-63
2022/04/02 03:49:39;;;;;;;115.95;43.15;;;;;;;3.13;68.80;93648.53;5030742;28;20462;-64
2022/04/02 03:52:05;;;;;;;99.82;42.08;;;;;;;3.64;68.55;93703.47;5031279;28;20034;-63
2022/04/02 03:54:31;;;;;;;79.18;35.92;;;;;;;2.43;68.76;93662.66;5034690;28;20048;-63
2022/04/02 03:56:57;;;;;;;72.30;33.90;;;;;;;2.52;70.30;93678.53;5034552;28;20026;-64
2022/04/02 03:59:23;;;;;;;91.05;39.42;;;;;;;3.15;69.45;93809.28;5034602;28;20026;-63
2022/04/02 04:01:48;;;;;;;85.28;36.90;;;;;;;3.55;70.80;93833.28;5033951;28;20544;-63
2022/04/02 04:04:14;;;;;;;78.63;35.35;;;;;;;3.16;69.40;93741.72;5034602;28;20052;-63
2022/04/02 04:06:39;;;;;;;67.85;34.65;;;;;;;3.23;69.08;93689.59;5034396;28;20021;-63
2022/04/02 04:09:05;;;;;;;81.20;36.95;;;;;;;3.13;69.04;93751.78;5034655;28;20026;-63
2022/04/02 04:11:30;;;;;;;60.67;27.63;;;;;;;3.11;70.00;93837.97;5033880;28;20037;-63
2022/04/02 04:13:59;;;;;;;55.60;29.83;;;;;;;2.31;71.14;93725.34;5034359;28;20035;-63
2022/04/02 04:16:24;;;;;;;66.05;32.22;;;;;;;2.22;69.74;93695.56;5034450;28;20064;-63
2022/04/02 04:18:50;;;;;;;78.40;36.40;;;;;;;2.48;70.01;93685.44;5016499;28;20516;-62
2022/04/02 04:21:15;;;;;;;81.15;35.33;;;;;;;4.00;69.25;93862.41;5033683;28;20047;-63
2022/04/02 04:23:42;;;;;;;66.63;32.08;;;;;;;2.78;69.68;93747.91;5034104;28;20037;-63
2022/04/02 04:26:08;;;;;;;73.22;34.00;;;;;;;3.58;70.03;93856.34;5034038;28;20036;-63
2022/04/02 04:28:33;;;;;;;54.50;30.65;;;;;;;3.37;69.28;93827.78;5033901;28;20033;-62
2022/04/02 04:30:59;;;;;;;44.03;25.80;;;;;;;2.76;70.58;93849.81;5015834;28;20029;-63
2022/04/02 04:33:24;;;;;;;51.40;27.83;;;;;;;2.32;70.63;93750.50;5033940;28;20038;-62
2022/04/02 04:35:49;;;;;;;46.50;26.23;;;;;;;2.49;69.37;93745.50;5033850;28;20060;-62
2022/04/02 04:38:15;;;;;;;57.63;31.23;;;;;;;2.52;70.24;93718.69;5034459;28;20494;-62
2022/04/02 04:40:40;;;;;;;55.53;29.05;;;;;;;2.47;70.10;93752.88;5033488;28;20029;-62
2022/04/02 04:43:07;;;;;;;55.80;30.10;;;;;;;2.40;68.79;93673.72;5033818;28;20025;-63
2022/04/02 04:45:32;;;;;;;44.95;24.92;;;;;;;3.28;69.24;93915.50;5033669;28;20029;-62
2022/04/02 04:47:59;;;;;;;50.97;28.52;;;;;;;2.06;69.37;93690.56;5033665;28;20029;-62
2022/04/02 04:50:24;;;;;;;43.28;26.52;;;;;;;2.68;69.29;93769.09;5033381;28;20458;-62
2022/04/02 04:52:50;;;;;;;39.40;24.25;;;;;;;2.02;70.18;93718.41;5033687;28;20044;-63
2022/04/02 04:55:15;;;;;;;44.67;24.85;;;;;;;3.46;68.84;93891.00;5033549;28;20036;-62
2022/04/02 04:57:40;;;;;;;30.10;19.08;;;;;;;2.81;69.44;93896.22;5033394;28;20028;-63
2022/04/02 05:00:07;;;;;;;33.42;21.88;;;;;;;2.58;69.40;93814.66;5015417;28;20053;-62
2022/04/02 05:02:32;;;;;;;45.38;26.55;;;;;;;2.50;68.56;93738.41;5033278;28;20040;-62
2022/04/02 05:04:57;;;;;;;42.55;25.05;;;;;;;2.71;68.68;93822.84;5032128;28;20105;-61
2022/04/02 05:07:23;;;;;;;43.28;24.60;;;;;;;2.95;69.20;93856.88;5033340;28;20076;-61
2022/04/02 05:09:49;;;;;;;49.10;28.25;;;;;;;3.92;68.01;93914.63;5033092;28;20461;-62
2022/04/02 05:12:15;;;;;;;43.55;27.50;;;;;;;3.40;66.86;93863.25;5032829;28;20031;-62
2022/04/02 05:14:41;;;;;;;46.08;26.30;;;;;;;1.96;68.02;93654.00;5033225;28;20466;-62
2022/04/02 05:17:06;;;;;;;41.72;25.63;;;;;;;2.88;67.24;93775.84;5033273;28;20032;-61
2022/04/02 05:19:32;;;;;;;38.25;24.38;;;;;;;3.35;66.61;93877.25;5015391;28;20025;-62
2022/04/02 05:21:57;;;;;;;34.63;22.75;;;;;;;3.15;67.86;93853.94;5032730;28;20045;-61
2022/04/02 05:24:23;;;;;;;39.80;25.92;;;;;;;2.54;66.88;93716.53;5033685;28;20029;-62
2022/04/02 05:26:49;;;;;;;34.17;23.88;;;;;;;2.37;67.05;93755.66;5032718;28;20466;-63
2022/04/02 05:29:14;;;;;;;36.25;23.00;;;;;;;3.42;67.75;93920.78;5032988;28;20390;-63
2022/04/02 05:31:43;;;;;;;30.95;22.27;;;;;;;3.68;67.04;93926.38;5032177;28;20378;-63
2022/04/02 05:34:09;;;;;;;34.42;21.50;;;;;;;2.76;66.34;93771.03;5032978;28;20072;-63
2022/04/02 05:36:38;;;;;;;34.08;20.75;;;;;;;2.44;66.39;93745.56;5032867;28;20410;-63
2022/04/02 05:39:04;;;;;;;35.20;22.02;;;;;;;3.89;65.95;93961.78;5032803;28;20029;-63
2022/04/02 05:41:30;;;;;;;32.15;22.60;;;;;;;4.27;65.58;93951.09;5032348;28;20041;-63
2022/04/02 05:43:55;;;;;;;31.90;22.25;;;;;;;2.54;65.87;93766.41;5032739;28;20052;-63
2022/04/02 05:46:22;;;;;;;25.98;19.08;;;;;;;3.63;65.38;93891.22;5032521;28;20065;-63
2022/04/02 05:48:47;;;;;;;28.55;17.88;;;;;;;3.60;66.00;93960.16;5032629;28;20026;-63
2022/04/02 05:51:13;;;;;;;33.75;21.23;;;;;;;3.26;66.38;93886.84;5032075;28;20036;-63
2022/04/02 05:53:38;;;;;;;34.83;22.85;;;;;;;2.56;65.03;93751.19;5032515;28;20094;-63
2022/04/02 05:56:04;;;;;;;30.00;18.85;;;;;;;2.49;66.02;93800.63;5014534;28;20109;-63
2022/04/02 05:58:32;;;;;;;30.08;18.63;;;;;;;2.94;66.21;93871.88;5032613;28;20455;-63
2022/04/02 06:00:58;;;;;;;28.85;19.73;;;;;;;2.38;65.91;93783.47;5031922;28;20071;-63
2022/04/02 06:03:23;;;;;;;32.97;18.85;;;;;;;3.39;66.08;93953.69;5032296;28;20061;-63
2022/04/02 06:05:50;;;;;;;31.58;18.95;;;;;;;2.20;65.75;93797.34;5032315;28;20040;-63
2022/04/02 06:08:16;;;;;;;34.42;18.80;;;;;;;2.69;66.64;93856.50;5014317;28;20116;-63
2022/04/02 06:10:44;;;;;;;28.48;19.00;;;;;;;3.50;64.39;93962.97;5031632;28;20082;-63
2022/04/02 06:13:09;;;;;;;27.63;19.90;;;;;;;3.01;65.55;93830.25;5032201;28;20040;-64
2022/04/02 06:15:35;;;;;;;25.98;18.50;;;;;;;1.84;64.89;93721.78;5031464;28;20610;-63
2022/04/02 06:18:00;;;;;;;27.83;19.90;;;;;;;2.11;63.96;93784.13;5031863;28;20029;-63
2022/04/02 06:20:26;;;;;;;30.67;20.65;;;;;;;2.80;63.81;93790.41;5031439;28;20080;-64
2022/04/02 06:22:51;;;;;;;34.17;21.35;;;;;;;3.50;64.74;93947.19;5031829;28;20642;-63
2022/04/02 06:25:17;;;;;;;35.30;22.40;;;;;;;2.62;64.67;93825.38;5031811;28;20032;-63
2022/04/02 06:27:44;;;;;;;39.92;21.42;;;;;;;3.89;65.10;94009.16;5031980;28;20014;-64
2022/04/02 06:30:11;;;;;;;27.67;19.80;;;;;;;3.21;64.69;93957.09;5031518;28;20033;-63
2022/04/02 06:32:40;;;;;;;30.80;20.58;;;;;;;3.78;65.06;94013.00;5031642;28;20188;-63
2022/04/02 06:35:06;;;;;;;29.58;19.33;;;;;;;2.58;64.80;93871.63;5031632;28;20021;-63
2022/04/02 06:37:34;;;;;;;36.38;21.38;;;;;;;2.47;65.81;93820.34;5031402;28;20085;-63
2022/04/02 06:39:59;;;;;;;32.55;18.98;;;;;;;1.96;65.34;93779.09;5031078;28;20366;-63
2022/04/02 06:42:25;;;;;;;28.42;20.00;;;;;;;4.26;64.49;94017.97;5013399;28;20039;-62
2022/04/02 06:44:50;;;;;;;32.08;20.17;;;;;;;2.88;65.18;93865.16;5031476;28;20136;-62
2022/04/02 06:47:16;;;;;;;36.35;20.05;;;;;;;3.04;64.08;93821.81;5031261;28;20107;-62
2022/04/02 06:49:41;;;;;;;26.80;19.85;;;;;;;3.57;63.33;93892.38;5031250;28;20033;-63
2022/04/02 06:52:07;;;;;;;33.08;21.10;;;;;;;4.50;62.70;93965.88;5013366;28;20119;-62
2022/04/02 06:54:33;;;;;;;26.60;19.85;;;;;;;4.25;61.68;93858.47;5031353;28;20021;-62
2022/04/02 06:56:59;;;;;;;25.45;18.00;;;;;;;3.99;61.81;93973.97;5031282;28;20049;-62
2022/04/02 06:59:25;;;;;;;23.85;17.98;;;;;;;4.73;61.84;94045.00;5031223;28;20067;-64
2022/04/02 07:01:51;;;;;;;20.15;16.30;;;;;;;4.12;63.31;94057.41;5030878;28;20060;-61
2022/04/02 07:04:16;;;;;;;25.25;18.67;;;;;;;3.50;61.01;93810.47;5031324;28;20030;-62
2022/04/02 07:06:44;;;;;;;23.75;18.52;;;;;;;4.83;61.42;94053.47;5031103;28;20021;-63
2022/04/02 07:09:11;;;;;;;23.63;18.23;;;;;;;4.30;61.34;93935.50;5031134;28;20033;-62
2022/04/02 07:11:36;;;;;;;24.30;17.90;;;;;;;5.01;60.40;94072.88;5030704;28;20025;-62
2022/04/02 07:14:02;;;;;;;32.88;19.30;;;;;;;4.49;60.19;93956.44;5030908;28;20024;-62
2022/04/02 07:16:28;;;;;;;27.45;18.23;;;;;;;3.88;60.64;93897.06;5030791;28;20030;-62
2022/04/02 07:18:55;;;;;;;23.38;18.08;;;;;;;3.34;61.76;93852.03;5030753;28;20079;-65
2022/04/02 07:21:24;;;;;;;26.85;18.27;;;;;;;5.07;60.75;94084.91;5030607;28;20474;-65
2022/04/02 07:23:50;;;;;;;20.73;17.23;;;;;;;4.62;61.16;94062.84;5031457;28;20468;-62
2022/04/02 07:26:17;;;;;;;28.17;18.63;;;;;;;4.49;60.79;94048.59;5030484;28;20061;-62
2022/04/02 07:28:44;;;;;;;26.48;18.23;;;;;;;4.98;60.64;94085.88;5030562;28;20108;-63
2022/04/02 07:31:10;;;;;;;24.25;19.25;;;;;;;4.53;60.16;94022.47;5029716;28;20033;-61
2022/04/02 07:33:36;;;;;;;23.88;18.90;;;;;;;4.14;60.36;93977.09;5031107;28;20028;-61
2022/04/02 07:36:18;;;;;;;21.10;17.15;;;;;;;4.44;60.94;93999.44;5031176;28;20064;-62
2022/04/02 07:38:58;;;;;;;25.83;16.75;;;;;;;3.99;58.94;93969.47;5031133;28;20040;-63
2022/04/02 07:41:32;;;;;;;25.10;14.57;;;;;;;3.41;60.82;93912.09;5030473;28;20029;-62
2022/04/02 07:44:21;;;;;;;27.15;15.75;;;;;;;4.55;59.33;94071.13;5030989;28;20083;-62
2022/04/02 07:46:48;;;;;;;24.73;16.80;;;;;;;4.40;58.59;93918.69;5029764;28;20045;-64
2022/04/02 07:49:20;;;;;;;21.65;17.08;;;;;;;5.47;56.99;93982.25;5031001;28;20025;-63
2022/04/02 07:51:50;;;;;;;22.05;16.98;;;;;;;4.43;57.84;93942.59;5030377;28;20021;-62
2022/04/02 07:54:20;;;;;;;27.90;18.92;;;;;;;5.93;58.98;94115.78;5030730;28;20113;-63
2022/04/02 07:56:49;;;;;;;27.05;19.90;;;;;;;5.88;58.45;94134.31;5030728;28;20033;-63
2022/04/02 07:59:25;;;;;;;27.58;17.75;;;;;;;5.84;59.25;94107.00;5030244;28;20033;-65
2022/04/02 08:01:51;;;;;;;30.02;20.13;;;;;;;5.09;57.79;93963.34;5011724;28;20038;-64
2022/04/02 08:04:21;;;;;;;33.88;21.48;;;;;;;5.26;57.88;93915.25;5030794;28;20026;-66
2022/04/02 08:06:49;;;;;;;36.70;22.02;;;;;;;6.31;58.40;94139.19;5030847;28;20028;-65
2022/04/02 08:09:17;;;;;;;33.67;21.30;;;;;;;6.47;58.13;94127.16;5030751;28;20060;-64
2022/04/02 08:11:45;;;;;;;33.35;22.65;;;;;;;5.73;58.89;94066.84;5030298;28;20389;-66
2022/04/02 08:14:11;;;;;;;30.65;21.15;;;;;;;4.98;59.75;94075.34;5030764;28;20083;-66
2022/04/02 08:16:42;;;;;;;36.28;23.80;;;;;;;4.53;59.35;93978.47;5029764;28;20029;-66
2022/04/02 08:19:09;;;;;;;30.17;23.10;;;;;;;4.56;60.66;94064.81;5030617;28;20033;-64
2022/04/02 08:21:36;;;;;;;26.77;18.15;;;;;;;4.20;60.88;94059.41;5030192;28;20025;-64
2022/04/02 08:24:03;;;;;;;29.27;18.85;;;;;;;4.78;60.14;94014.06;5030434;28;20057;-65
2022/04/02 08:26:53;;;;;;;24.15;17.35;;;;;;;5.19;58.57;94139.75;5030699;28;20108;-65
2022/04/02 08:29:27;;;;;;;22.98;14.48;;;;;;;5.01;60.22;94162.47;5030363;28;20095;-65
2022/04/02 08:32:10;;;;;;;23.60;16.55;;;;;;;5.93;59.94;94160.63;5029390;28;20470;-65
2022/04/02 08:35:03;;;;;;;20.77;15.65;;;;;;;5.21;58.82;94085.63;5012924;28;20426;-67
2022/04/02 08:37:32;;;;;;;19.63;15.07;;;;;;;6.23;58.95;94162.59;5012835;28;20084;-66
2022/04/02 08:40:34;;;;;;;22.83;17.20;;;;;;;6.95;57.96;94160.81;5033631;28;20092;-63
2022/04/02 08:43:37;;;;;;;25.38;17.10;;;;;;;6.99;57.46;94167.06;5033966;28;20112;-63
2022/04/02 08:46:31;;;;;;;25.95;17.80;;;;;;;6.99;57.93;94159.13;5015590;28;20453;-65
2022/04/02 08:49:19;;;;;;;21.70;15.30;;;;;;;6.40;57.20;94177.78;4992253;28;20038;-62
2022/04/02 08:51:48;;;;;;;20.38;16.08;;;;;;;5.72;59.01;94142.59;5013656;28;20034;-62
2022/04/02 08:54:24;;;;;;;27.05;16.88;;;;;;;5.72;59.18;94168.97;5013902;28;20109;-62
2022/04/02 08:57:11;;;;;;;18.67;14.20;;;;;;;5.42;59.79;94174.88;5013948;28;20030;-64
2022/04/02 08:59:38;;;;;;;15.75;13.40;;;;;;;4.33;60.66;94131.56;5014166;28;20107;-69
2022/04/02 09:02:28;;;;;;;16.60;12.98;;;;;;;5.13;59.65;94207.59;5002799;28;20036;-64
2022/04/02 09:05:20;;;;;;;15.25;13.13;;;;;;;5.61;60.42;94215.13;5033494;28;20029;-64
2022/04/02 09:08:09;;;;;;;20.42;13.45;;;;;;;6.13;57.95;94170.75;5033402;28;20713;-65
2022/04/02 09:11:09;;;;;;;14.25;12.43;;;;;;;6.16;56.46;94215.03;5032743;28;20108;-63
2022/04/02 09:13:56;;;;;;;13.90;12.23;;;;;;;7.43;56.84;94213.78;5032964;28;20033;-60
2022/04/02 09:16:31;;;;;;;20.08;12.98;;;;;;;7.49;55.40;94162.28;5033107;28;20117;-60
2022/04/02 09:19:06;;;;;;;18.95;13.25;;;;;;;7.40;55.55;94217.03;5015317;28;20048;-61
2022/04/02 09:21:50;;;;;;;18.23;14.73;;;;;;;7.21;55.27;94221.75;5032690;28;20024;-61
2022/04/02 09:24:46;;;;;;;19.80;13.55;;;;;;;7.41;56.07;94241.59;5032947;28;20061;-60
2022/04/02 09:27:14;;;;;;;21.00;15.50;;;;;;;7.59;57.37;94227.38;5033292;28;20021;-61
2022/04/02 09:29:51;;;;;;;44.75;22.67;;;;;;;7.41;56.08;94228.38;5014962;28;20033;-60
2022/04/02 09:32:50;;;;;;;21.63;19.50;;;;;;;5.50;60.14;94242.78;5032399;28;20652;-60
2022/04/02 09:35:39;;;;;;;21.60;19.30;;;;;;;4.99;61.38;94235.78;5032720;28;20068;-60
2022/04/02 09:38:26;;;;;;;22.88;19.25;;;;;;;5.93;59.95;94242.47;5015032;28;20124;-61
2022/04/02 09:41:07;;;;;;;20.25;17.63;;;;;;;5.91;60.25;94239.31;5014483;28;20030;-61
2022/04/02 09:43:38;;;;;;;17.30;15.48;;;;;;;5.57;60.21;94245.78;5032656;28;20036;-61
2022/04/02 09:46:42;;;;;;;21.15;15.15;;;;;;;6.16;58.72;94245.94;5032611;28;20025;-61
2022/04/02 09:49:42;;;;;;;17.33;14.00;;;;;;;5.42;59.63;94251.34;4986040;28;20037;-61
2022/04/02 09:52:08;;;;;;;17.73;13.10;;;;;;;5.19;61.18;94259.16;5032147;28;20022;-61
2022/04/02 09:54:48;;;;;;;15.98;13.15;;;;;;;5.63;60.21;94254.38;5032340;28;20049;-61
2022/04/02 09:57:25;;;;;;;15.40;12.00;;;;;;;5.03;62.18;94252.59;5032450;28;20037;-61
2022/04/02 10:00:07;;;;;;;14.18;12.98;;;;;;;5.87;59.97;94198.75;5032060;28;20025;-61
2022/04/02 10:02:43;;;;;;;13.37;12.03;;;;;;;5.58;60.14;94260.56;5031986;28;20038;-61
2022/04/02 10:05:14;;;;;;;17.85;12.93;;;;;;;4.84;62.31;94205.22;5032304;28;20044;-63
2022/04/02 10:08:04;;;;;;;15.80;12.35;;;;;;;4.35;63.23;94253.94;5032165;28;20029;-62
2022/04/02 10:10:30;;;;;;;14.00;12.70;;;;;;;4.87;61.94;94254.72;5031743;28;20037;-63
2022/04/02 10:12:56;;;;;;;16.55;13.35;;;;;;;5.57;60.54;94253.69;5032225;28;20419;-62
2022/04/02 10:15:23;;;;;;;15.45;13.85;;;;;;;6.02;59.95;94259.16;5032194;28;20029;-64
2022/04/02 10:17:52;;;;;;;14.40;11.50;;;;;;;5.09;60.21;94277.78;5032182;28;20021;-64
2022/04/02 10:20:24;;;;;;;21.45;13.55;;;;;;;4.31;60.98;94150.28;5012837;28;20029;-64
2022/04/02 10:23:12;;;;;;;20.17;14.63;;;;;;;5.27;61.21;94268.22;5032151;28;20120;-63
2022/04/02 10:25:56;;;;;;;13.15;11.13;;;;;;;4.51;60.92;94222.91;5014489;28;20122;-64
2022/04/02 10:28:32;;;;;;;18.00;13.20;;;;;;;5.50;61.48;94236.72;5031967;28;20379;-64
2022/04/02 10:31:00;;;;;;;14.35;12.85;;;;;;;6.22;58.80;94266.66;5031013;28;20061;-63
2022/04/02 10:33:30;;;;;;;19.13;12.95;;;;;;;5.01;61.13;94272.38;5030788;28;20892;-65
2022/04/02 10:35:57;;;;;;;14.48;12.50;;;;;;;3.49;60.50;94076.31;5031923;28;20025;-64
2022/04/02 10:38:28;;;;;;;17.42;13.75;;;;;;;4.82;62.26;94299.59;5014020;28;20080;-64
2022/04/02 10:40:54;;;;;;;15.13;13.65;;;;;;;4.40;62.01;94124.06;5031554;28;20033;-64
2022/04/02 10:43:27;;;;;;;14.60;13.15;;;;;;;6.06;59.81;94272.56;5031901;28;20034;-64
2022/04/02 10:45:53;;;;;;;15.52;13.85;;;;;;;6.38;61.47;94245.97;5031666;28;20025;-62
2022/04/02 10:48:28;;;;;;;17.88;12.63;;;;;;;4.87;61.06;94267.88;5030747;28;20037;-65
2022/04/02 10:50:57;;;;;;;15.13;13.40;;;;;;;6.46;60.01;94281.47;5011656;28;20072;-67
2022/04/02 10:53:23;;;;;;;17.42;12.57;;;;;;;6.47;58.43;94283.03;5012142;28;20101;-65
2022/04/02 10:55:58;;;;;;;18.58;13.20;;;;;;;6.39;56.79;94191.28;5012010;28;20034;-64
2022/04/02 10:58:23;;;;;;;16.40;14.40;;;;;;;7.24;56.72;94289.94;5011779;28;20416;-65
2022/04/02 11:00:55;;;;;;;18.40;14.57;;;;;;;7.01;56.70;94297.09;5011189;28;20026;-65
2022/04/02 11:03:33;;;;;;;;;;;;;;;7.20;55.87;94321.50;5012042;28;20026;-65
2022/04/02 11:05:59;;;;;;;19.90;13.40;;;;;;;5.65;58.36;94313.72;5011662;28;19913;-65
2022/04/02 11:08:30;;;;;;;20.58;13.45;;;;;;;5.95;59.24;94324.78;5011429;28;20414;-71
2022/04/02 11:10:58;;;;;;;15.77;14.18;;;;;;;5.89;59.29;94323.31;5009886;28;20037;-66
2022/04/02 11:13:29;;;;;;;17.80;13.48;;;;;;;5.71;58.14;94162.13;5011612;28;20013;-63
2022/04/02 11:15:55;;;;;;;15.55;13.95;;;;;;;6.56;58.24;94320.88;5011505;28;20029;-63
2022/04/02 11:18:21;;;;;;;23.55;19.27;;;;;;;7.51;63.58;94313.56;5010923;28;20097;-64
2022/04/02 11:21:04;;;;;;;28.15;20.55;;;;;;;6.79;60.78;94210.66;5029080;28;20112;-62
2022/04/02 11:24:11;;;;;;;33.15;23.02;;;;;;;7.48;56.45;94318.69;5031169;28;20025;-65
2022/04/02 11:26:40;;;;;;;24.05;18.70;;;;;;;5.80;59.72;94365.41;4931334;29;20603;-63
2022/04/02 11:29:08;;;;;;;20.60;18.55;;;;;;;5.47;59.70;94187.97;4931349;29;20124;-66
2022/04/02 11:31:36;;;;;;;23.45;16.35;;;;;;;5.81;59.13;94277.25;4983728;28;20034;-64
2022/04/02 11:34:10;;;;;;;21.77;17.27;;;;;;;6.70;58.89;94303.09;5030467;28;20040;-62
2022/04/02 11:36:44;;;;;;;21.55;15.85;;;;;;;5.67;57.90;94229.75;5013603;28;20414;-63
2022/04/02 11:39:11;;;;;;;21.10;14.63;;;;;;;5.59;57.76;94222.56;5030946;28;20390;-65